Datun, China
Current Conditions -  °F | °C
As of 5:00 PM on Monday 24 Nov 2014 (Local Time) from ZYCC Reporting Station
Smoke Smoke  
Wind Chill: 25°   Ceiling: Unl
Heat Index: 25°   Visibility: 3mi
Dew Point:   Wind: 2mph
Humidity: 50%   Direction: 340°NNW
Pressure: 30.36"   Gusts: NA
Location:  43.75°N, 125.17°E
Report Text: ZYCC 240900Z 34001MPS 5000 FU NSC M04/M13 Q1028 NOSIG
Loading
Personal Weather Stations






























Interactive Weather Map New forecast layout! Learn more

10-Day Weather Forecast

Advertisements
Track Severe Weather on mobile